createdAt,value
2018-06-02T00:00:02.429Z,0
2018-06-02T00:01:03.782Z,0
2018-06-02T00:02:05.146Z,0
2018-06-02T00:03:06.504Z,0
2018-06-02T00:04:07.868Z,0
2018-06-02T00:05:09.225Z,0
2018-06-02T00:06:10.578Z,0
2018-06-02T00:07:11.941Z,0
2018-06-02T00:08:13.304Z,0
2018-06-02T00:09:14.663Z,0
2018-06-02T00:10:16.034Z,0
2018-06-02T00:11:17.397Z,0
2018-06-02T00:12:18.753Z,0
2018-06-02T00:13:20.104Z,0
2018-06-02T00:14:21.478Z,0
2018-06-02T00:15:22.830Z,0
2018-06-02T00:16:24.186Z,0
2018-06-02T00:17:25.539Z,0
2018-06-02T00:18:26.896Z,0
2018-06-02T00:19:28.250Z,0
2018-06-02T00:20:29.611Z,0
2018-06-02T00:21:30.972Z,0
2018-06-02T00:22:32.362Z,0
2018-06-02T00:23:33.735Z,0
2018-06-02T00:24:35.095Z,0
2018-06-02T00:25:36.468Z,0
2018-06-02T00:26:37.822Z,0
2018-06-02T00:27:39.296Z,0
2018-06-02T00:28:40.671Z,0
2018-06-02T00:29:42.043Z,0
2018-06-02T00:30:43.418Z,0
2018-06-02T00:31:44.768Z,0
2018-06-02T00:32:46.136Z,0
2018-06-02T00:33:47.492Z,0
2018-06-02T00:34:48.847Z,0
2018-06-02T00:35:50.208Z,0
2018-06-02T00:36:51.556Z,0
2018-06-02T00:37:52.926Z,0
2018-06-02T00:38:54.293Z,0
2018-06-02T00:39:55.649Z,0
2018-06-02T00:40:57.024Z,0
2018-06-02T00:41:58.381Z,0
2018-06-02T00:42:59.747Z,0
2018-06-02T00:44:01.113Z,0
2018-06-02T00:45:02.473Z,0
2018-06-02T00:46:03.841Z,0
2018-06-02T00:47:05.196Z,0
2018-06-02T00:48:06.598Z,0
2018-06-02T00:49:07.917Z,0
2018-06-02T00:50:09.279Z,0
2018-06-02T00:51:10.645Z,0
2018-06-02T00:52:11.993Z,0
2018-06-02T00:53:13.393Z,0
2018-06-02T00:54:14.718Z,0
2018-06-02T00:55:16.090Z,0
2018-06-02T00:56:17.450Z,0
2018-06-02T00:57:18.819Z,0
2018-06-02T00:58:20.181Z,0
2018-06-02T00:59:21.531Z,0
2018-06-02T01:00:22.897Z,0
2018-06-02T01:01:24.272Z,0
2018-06-02T01:02:25.637Z,0
2018-06-02T01:03:26.993Z,0
2018-06-02T01:04:28.352Z,0
2018-06-02T01:05:29.749Z,0
2018-06-02T01:06:31.066Z,0
2018-06-02T01:07:32.452Z,0
2018-06-02T01:08:33.812Z,0
2018-06-02T01:09:35.179Z,0
2018-06-02T01:10:36.526Z,0
2018-06-02T01:11:37.896Z,0
2018-06-02T01:12:39.263Z,0
2018-06-02T01:13:40.613Z,0
2018-06-02T01:14:41.975Z,0
2018-06-02T01:15:43.336Z,0
2018-06-02T01:16:44.694Z,0
2018-06-02T01:17:46.054Z,0
2018-06-02T01:18:47.411Z,0
2018-06-02T01:19:48.766Z,0
2018-06-02T01:20:50.138Z,0
2018-06-02T01:21:51.473Z,0
2018-06-02T01:22:52.831Z,0
2018-06-02T01:23:54.195Z,0
2018-06-02T01:24:55.552Z,0
2018-06-02T01:25:56.906Z,0
2018-06-02T01:26:58.275Z,0
2018-06-02T01:27:59.646Z,0
2018-06-02T01:29:01.006Z,0
2018-06-02T01:30:02.392Z,0
2018-06-02T01:31:03.751Z,0
2018-06-02T01:32:05.120Z,0
2018-06-02T01:33:06.477Z,0
2018-06-02T01:34:07.839Z,0
2018-06-02T01:35:09.209Z,0
2018-06-02T01:36:10.565Z,0
2018-06-02T01:37:11.933Z,0
2018-06-02T01:38:13.286Z,0
2018-06-02T01:39:14.647Z,0
2018-06-02T01:40:16.009Z,0
2018-06-02T01:41:17.476Z,0
2018-06-02T01:42:18.837Z,0
2018-06-02T01:43:20.187Z,0
2018-06-02T01:44:21.547Z,0
2018-06-02T01:45:22.908Z,0
2018-06-02T01:46:24.266Z,0
2018-06-02T01:47:25.626Z,0
2018-06-02T01:48:26.987Z,0
2018-06-02T01:49:28.342Z,0
2018-06-02T01:50:29.704Z,0
2018-06-02T01:51:31.063Z,0
2018-06-02T01:52:32.448Z,0
2018-06-02T01:53:33.809Z,0
2018-06-02T01:54:35.165Z,0
2018-06-02T01:55:36.528Z,0
2018-06-02T01:56:37.888Z,0
2018-06-02T01:57:39.238Z,0
2018-06-02T01:58:40.601Z,0
2018-06-02T01:59:41.961Z,0
2018-06-02T02:00:43.327Z,0
2018-06-02T02:01:44.687Z,0
2018-06-02T02:02:46.049Z,0
2018-06-02T02:03:47.400Z,0
2018-06-02T02:04:49.616Z,0
2018-06-02T02:05:50.070Z,0
2018-06-02T02:06:51.424Z,0
2018-06-02T02:07:52.783Z,0
2018-06-02T02:08:54.142Z,0
2018-06-02T02:09:55.505Z,0
2018-06-02T02:10:56.861Z,0
2018-06-02T02:11:58.222Z,0
2018-06-02T02:12:59.578Z,0
2018-06-02T02:14:00.965Z,0
2018-06-02T02:15:02.784Z,0
2018-06-02T02:16:04.146Z,0
2018-06-02T02:17:05.499Z,0
2018-06-02T02:18:06.861Z,0
2018-06-02T02:19:08.213Z,0
2018-06-02T02:20:09.567Z,0
2018-06-02T02:21:10.930Z,0
2018-06-02T02:22:12.284Z,0
2018-06-02T02:23:13.640Z,0
2018-06-02T02:24:15.005Z,0
2018-06-02T02:25:16.371Z,0
2018-06-02T02:26:17.719Z,0
2018-06-02T02:27:19.078Z,0
2018-06-02T02:28:20.440Z,0
2018-06-02T02:29:22.505Z,0
2018-06-02T02:30:23.859Z,0
2018-06-02T02:31:25.220Z,0
2018-06-02T02:32:26.568Z,0
2018-06-02T02:33:27.932Z,0
2018-06-02T02:34:29.290Z,0
2018-06-02T02:35:30.644Z,0
2018-06-02T02:36:32.045Z,0
2018-06-02T02:37:33.396Z,0
2018-06-02T02:38:34.765Z,0
2018-06-02T02:39:36.149Z,0
2018-06-02T02:40:37.492Z,0
2018-06-02T02:41:38.852Z,0
2018-06-02T02:42:40.212Z,4
2018-06-02T02:43:41.583Z,4
2018-06-02T02:44:42.943Z,4
2018-06-02T02:45:44.299Z,4
2018-06-02T02:46:45.652Z,4
2018-06-02T02:47:47.011Z,4
2018-06-02T02:48:48.373Z,4
2018-06-02T02:49:49.732Z,8
2018-06-02T02:50:51.092Z,4
2018-06-02T02:51:52.456Z,8
2018-06-02T02:52:53.807Z,8
2018-06-02T02:53:55.169Z,8
2018-06-02T02:54:56.528Z,12
2018-06-02T02:55:57.889Z,12
2018-06-02T02:56:59.250Z,12
2018-06-02T02:58:00.615Z,20
2018-06-02T02:59:01.998Z,20
2018-06-02T03:00:03.352Z,24
2018-06-02T03:01:04.719Z,28
2018-06-02T03:02:06.068Z,32
2018-06-02T03:03:07.438Z,36
2018-06-02T03:04:08.795Z,40
2018-06-02T03:05:10.161Z,52
2018-06-02T03:06:11.523Z,56
2018-06-02T03:07:12.887Z,64
2018-06-02T03:08:14.247Z,72
2018-06-02T03:09:15.621Z,84
2018-06-02T03:10:16.981Z,92
2018-06-02T03:11:18.344Z,108
2018-06-02T03:12:19.703Z,124
2018-06-02T03:13:21.068Z,136
2018-06-02T03:14:22.434Z,156
2018-06-02T03:15:23.790Z,176
2018-06-02T03:16:25.147Z,196
2018-06-02T03:17:26.506Z,220
2018-06-02T03:18:27.867Z,244
2018-06-02T03:19:29.225Z,272
2018-06-02T03:20:30.590Z,304
2018-06-02T03:21:32.794Z,332
2018-06-02T03:22:34.155Z,364
2018-06-02T03:23:35.515Z,400
2018-06-02T03:24:36.877Z,436
2018-06-02T03:25:38.235Z,476
2018-06-02T03:26:39.598Z,516
2018-06-02T03:27:40.960Z,560
2018-06-02T03:28:42.328Z,604
2018-06-02T03:29:43.686Z,648
2018-06-02T03:30:45.041Z,696
2018-06-02T03:31:46.405Z,748
2018-06-02T03:32:47.769Z,800
2018-06-02T03:33:49.133Z,860
2018-06-02T03:34:50.499Z,920
2018-06-02T03:35:51.862Z,984
2018-06-02T03:36:53.217Z,1048
2018-06-02T03:37:54.585Z,1112
2018-06-02T03:38:55.949Z,1176
2018-06-02T03:39:57.307Z,1240
2018-06-02T03:40:58.677Z,1308
2018-06-02T03:42:00.038Z,1368
2018-06-02T03:43:01.412Z,1440
2018-06-02T03:44:02.775Z,1504
2018-06-02T03:45:04.141Z,1576
2018-06-02T03:46:05.505Z,1648
2018-06-02T03:47:06.867Z,1716
2018-06-02T03:48:08.231Z,1788
2018-06-02T03:49:09.604Z,1864
2018-06-02T03:50:10.965Z,1936
2018-06-02T03:51:12.331Z,2012
2018-06-02T03:52:13.700Z,2088
2018-06-02T03:53:15.056Z,2160
2018-06-02T03:54:16.423Z,2236
2018-06-02T03:55:17.787Z,2304
2018-06-02T03:56:19.152Z,2376
2018-06-02T03:57:20.519Z,2448
2018-06-02T03:58:21.877Z,2508
2018-06-02T03:59:23.237Z,2580
2018-06-02T04:00:24.601Z,2648
2018-06-02T04:01:25.965Z,2716
2018-06-02T04:02:27.332Z,2792
2018-06-02T04:03:28.701Z,2864
2018-06-02T04:04:30.059Z,2940
2018-06-02T04:05:31.424Z,3016
2018-06-02T04:06:32.755Z,3092
2018-06-02T04:07:34.126Z,3164
2018-06-02T04:08:35.500Z,3228
2018-06-02T04:09:36.850Z,3292
2018-06-02T04:10:38.244Z,3348
2018-06-02T04:11:39.615Z,3388
2018-06-02T04:12:40.971Z,3432
2018-06-02T04:13:42.333Z,3480
2018-06-02T04:14:43.692Z,3536
2018-06-02T04:15:45.092Z,3596
2018-06-02T04:16:46.429Z,3656
2018-06-02T04:17:47.796Z,3716
2018-06-02T04:18:49.153Z,3784
2018-06-02T04:19:50.527Z,3852
2018-06-02T04:20:51.888Z,3920
2018-06-02T04:21:53.253Z,3988
2018-06-02T04:22:54.618Z,4052
2018-06-02T04:23:55.986Z,4116
2018-06-02T04:24:57.353Z,4172
2018-06-02T04:25:58.716Z,4236
2018-06-02T04:27:00.075Z,4304
2018-06-02T04:28:01.447Z,4372
2018-06-02T04:29:02.807Z,4440
2018-06-02T04:30:04.170Z,4504
2018-06-02T04:31:05.537Z,4568
2018-06-02T04:32:06.902Z,4636
2018-06-02T04:33:08.287Z,4716
2018-06-02T04:34:09.658Z,4816
2018-06-02T04:35:11.009Z,4924
2018-06-02T04:36:12.370Z,5024
2018-06-02T04:37:13.734Z,5112
2018-06-02T04:38:15.106Z,5188
2018-06-02T04:39:16.467Z,5260
2018-06-02T04:40:17.839Z,5328
2018-06-02T04:41:19.209Z,5404
2018-06-02T04:42:20.573Z,5476
2018-06-02T04:43:21.933Z,5544
2018-06-02T04:44:23.294Z,5600
2018-06-02T04:45:24.664Z,5648
2018-06-02T04:46:26.061Z,5680
2018-06-02T04:47:27.397Z,5732
2018-06-02T04:48:28.751Z,5812
2018-06-02T04:49:30.120Z,5924
2018-06-02T04:50:31.511Z,6024
2018-06-02T04:51:32.847Z,6092
2018-06-02T04:52:34.226Z,6152
2018-06-02T04:53:35.591Z,6260
2018-06-02T04:54:36.965Z,6380
2018-06-02T04:55:38.330Z,6528
2018-06-02T04:56:39.689Z,6728
2018-06-02T04:57:41.056Z,6900
2018-06-02T04:58:42.425Z,6956
2018-06-02T04:59:43.786Z,7008
2018-06-02T05:00:45.157Z,7060
2018-06-02T05:01:46.514Z,7144
2018-06-02T05:02:47.887Z,7196
2018-06-02T05:03:49.252Z,7248
2018-06-02T05:04:50.625Z,7364
2018-06-02T05:05:51.981Z,7616
2018-06-02T05:06:53.342Z,8040
2018-06-02T05:07:54.712Z,8660
2018-06-02T05:08:56.081Z,9296
2018-06-02T05:09:57.448Z,9700
2018-06-02T05:10:58.814Z,9888
2018-06-02T05:12:00.172Z,9812
2018-06-02T05:13:01.589Z,9548
2018-06-02T05:14:02.956Z,9268
2018-06-02T05:15:04.346Z,9156
2018-06-02T05:16:05.692Z,9072
2018-06-02T05:17:07.045Z,8912
2018-06-02T05:18:08.420Z,8768
2018-06-02T05:19:09.791Z,8612
2018-06-02T05:20:11.156Z,8464
2018-06-02T05:21:12.514Z,8364
2018-06-02T05:22:13.890Z,8424
2018-06-02T05:23:15.253Z,8560
2018-06-02T05:24:16.618Z,8700
2018-06-02T05:25:17.985Z,8832
2018-06-02T05:26:19.346Z,8956
2018-06-02T05:27:20.719Z,9108
2018-06-02T05:28:22.086Z,9324
2018-06-02T05:29:23.451Z,9644
2018-06-02T05:30:24.819Z,10112
2018-06-02T05:31:26.187Z,10792
2018-06-02T05:32:27.555Z,11812
2018-06-02T05:33:28.920Z,13068
2018-06-02T05:34:30.288Z,14396
2018-06-02T05:35:31.669Z,15672
2018-06-02T05:36:33.038Z,17376
2018-06-02T05:37:34.414Z,19488
2018-06-02T05:38:35.776Z,20864
2018-06-02T05:39:37.144Z,21312
2018-06-02T05:40:38.509Z,20544
2018-06-02T05:41:39.988Z,22112
2018-06-02T05:42:41.358Z,22816
2018-06-02T05:43:42.726Z,22368
2018-06-02T05:44:44.096Z,19776
2018-06-02T05:45:45.476Z,19904
2018-06-02T05:46:46.870Z,21024
2018-06-02T05:47:48.249Z,23264
2018-06-02T05:48:49.603Z,24032
2018-06-02T05:49:50.971Z,24704
2018-06-02T05:50:52.344Z,24352
2018-06-02T05:51:53.717Z,24416
2018-06-02T05:52:55.084Z,26592
2018-06-02T05:53:56.450Z,23808
2018-06-02T05:54:57.821Z,26304
2018-06-02T05:55:59.200Z,24256
2018-06-02T05:57:00.572Z,22592
2018-06-02T05:58:01.981Z,22592
2018-06-02T05:59:03.352Z,22656
2018-06-02T06:00:04.721Z,22624
2018-06-02T06:01:06.091Z,22528
2018-06-02T06:02:07.467Z,22848
2018-06-02T06:03:08.831Z,23584
2018-06-02T06:04:10.216Z,24896
2018-06-02T06:05:11.593Z,26464
2018-06-02T06:06:12.967Z,27168
2018-06-02T06:07:14.345Z,28736
2018-06-02T06:08:15.720Z,29568
2018-06-02T06:09:17.081Z,27872
2018-06-02T06:10:18.458Z,29824
2018-06-02T06:11:19.845Z,30976
2018-06-02T06:12:21.214Z,38656
2018-06-02T06:13:22.601Z,38624
2018-06-02T06:14:23.976Z,34144
2018-06-02T06:15:25.352Z,36864
2018-06-02T06:16:26.727Z,51904
2018-06-02T06:17:28.103Z,28736
2018-06-02T06:18:29.470Z,36032
2018-06-02T06:19:30.891Z,30112
2018-06-02T06:20:32.259Z,30752
2018-06-02T06:21:33.639Z,44992
2018-06-02T06:22:35.001Z,27456
2018-06-02T06:23:36.368Z,26304
2018-06-02T06:24:37.744Z,27040
2018-06-02T06:25:39.112Z,24096
2018-06-02T06:26:40.485Z,23328
2018-06-02T06:27:42.024Z,25536
2018-06-02T06:28:43.400Z,31744
2018-06-02T06:29:44.783Z,60992
2018-06-02T06:30:46.156Z,60320
2018-06-02T06:31:47.537Z,63296
2018-06-02T06:32:48.923Z,49184
2018-06-02T06:33:50.273Z,32640
2018-06-02T06:34:51.656Z,61152
2018-06-02T06:35:53.024Z,49088
2018-06-02T06:36:54.475Z,64832
2018-06-02T06:37:55.853Z,66496
2018-06-02T06:38:57.229Z,68032
2018-06-02T06:39:58.610Z,62304
2018-06-02T06:41:00.006Z,60128
2018-06-02T06:42:01.382Z,60032
2018-06-02T06:43:02.756Z,56512
2018-06-02T06:44:04.130Z,61120
2018-06-02T06:45:05.510Z,56832
2018-06-02T06:46:06.915Z,53248
2018-06-02T06:47:08.295Z,53632
2018-06-02T06:48:09.667Z,49920
2018-06-02T06:49:11.041Z,36160
2018-06-02T06:50:12.413Z,33024
2018-06-02T06:51:13.797Z,40288
2018-06-02T06:52:15.164Z,41760
2018-06-02T06:53:16.543Z,49280
2018-06-02T06:54:17.917Z,20288
2018-06-02T06:55:19.293Z,19392
2018-06-02T06:56:20.665Z,19968
2018-06-02T06:57:22.041Z,19488
2018-06-02T06:58:23.418Z,20256
2018-06-02T06:59:24.794Z,18004
2018-06-02T07:00:26.167Z,17492
2018-06-02T07:01:27.545Z,19072
2018-06-02T07:02:28.921Z,21888
2018-06-02T07:03:30.350Z,25728
2018-06-02T07:04:31.740Z,31232
2018-06-02T07:05:33.116Z,64448
2018-06-02T07:06:34.512Z,66656
2018-06-02T07:07:35.947Z,63968
2018-06-02T07:08:37.393Z,62752
2018-06-02T07:09:38.788Z,51392
2018-06-02T07:10:40.165Z,63040
2018-06-02T07:11:41.552Z,60128
2018-06-02T07:12:42.918Z,56672
2018-06-02T07:13:44.328Z,30048
2018-06-02T07:14:45.772Z,28192
2018-06-02T07:15:47.202Z,56608
2018-06-02T07:16:48.549Z,58720
2018-06-02T07:17:50.014Z,59136
2018-06-02T07:18:51.342Z,57056
2018-06-02T07:19:52.716Z,61632
2018-06-02T07:20:54.099Z,68864
2018-06-02T07:21:55.472Z,75680
2018-06-02T07:22:56.860Z,71936
2018-06-02T07:23:58.240Z,64448
2018-06-02T07:24:59.626Z,62688
2018-06-02T07:26:01.004Z,66656
2018-06-02T07:27:02.393Z,68256
2018-06-02T07:28:03.778Z,71968
2018-06-02T07:29:05.170Z,79296
2018-06-02T07:30:06.543Z,75840
2018-06-02T07:31:07.931Z,70560
2018-06-02T07:32:09.307Z,66528
2018-06-02T07:33:10.691Z,59136
2018-06-02T07:34:12.067Z,54464
2018-06-02T07:35:13.454Z,53376
2018-06-02T07:36:14.834Z,26880
2018-06-02T07:37:16.216Z,50176
2018-06-02T07:38:17.629Z,25344
2018-06-02T07:39:19.012Z,27328
2018-06-02T07:40:20.388Z,46304
2018-06-02T07:41:21.772Z,51648
2018-06-02T07:42:23.155Z,51968
2018-06-02T07:43:24.533Z,46976
2018-06-02T07:44:25.916Z,48448
2018-06-02T07:45:27.302Z,49152
2018-06-02T07:46:28.684Z,47488
2018-06-02T07:47:30.057Z,46976
2018-06-02T07:48:31.479Z,46816
2018-06-02T07:49:32.831Z,37120
2018-06-02T07:50:34.222Z,52288
2018-06-02T07:51:35.605Z,53120
2018-06-02T07:52:36.982Z,52736
2018-06-02T07:53:38.364Z,51584
2018-06-02T07:54:39.757Z,50688
2018-06-02T07:55:41.135Z,30368
2018-06-02T07:56:42.514Z,29856
2018-06-02T07:57:43.907Z,28512
2018-06-02T07:58:45.283Z,27360
2018-06-02T07:59:46.669Z,25952
2018-06-02T08:00:48.057Z,26848
2018-06-02T08:01:49.433Z,44608
2018-06-02T08:02:50.949Z,43680
2018-06-02T08:03:52.319Z,42144
2018-06-02T08:04:53.729Z,41152
2018-06-02T08:05:55.098Z,41216
2018-06-02T08:06:56.488Z,41024
2018-06-02T08:07:57.864Z,41024
2018-06-02T08:08:59.250Z,41920
2018-06-02T08:10:00.625Z,43136
2018-06-02T08:11:02.040Z,44000
2018-06-02T08:12:03.468Z,44032
2018-06-02T08:13:04.838Z,44960
2018-06-02T08:14:06.219Z,45696
2018-06-02T08:15:07.617Z,44448
2018-06-02T08:16:08.992Z,43328
2018-06-02T08:17:10.368Z,46208
2018-06-02T08:18:11.757Z,48448
2018-06-02T08:19:13.141Z,50496
2018-06-02T08:20:14.520Z,49856
2018-06-02T08:21:15.919Z,47328
2018-06-02T08:22:17.312Z,48096
2018-06-02T08:23:18.696Z,88800
2018-06-02T08:24:20.097Z,80256
2018-06-02T08:25:21.466Z,32192
2018-06-02T08:26:22.852Z,29248
2018-06-02T08:27:24.253Z,32960
2018-06-02T08:28:25.647Z,66336
2018-06-02T08:29:27.057Z,106880
2018-06-02T08:30:28.435Z,107456
2018-06-02T08:31:29.823Z,109024
2018-06-02T08:32:31.216Z,23872
2018-06-02T08:33:32.610Z,23488
2018-06-02T08:34:33.977Z,94784
2018-06-02T08:35:35.360Z,103424
2018-06-02T08:36:36.743Z,106144
2018-06-02T08:37:38.136Z,110592
2018-06-02T08:38:39.520Z,108704
2018-06-02T08:39:40.912Z,112192
2018-06-02T08:40:42.299Z,111520
2018-06-02T08:41:43.677Z,115200
2018-06-02T08:42:45.077Z,120608
2018-06-02T08:43:46.468Z,116800
2018-06-02T08:44:47.889Z,96512
2018-06-02T08:45:49.286Z,122176
2018-06-02T08:46:50.672Z,104160
2018-06-02T08:47:52.050Z,32384
2018-06-02T08:48:53.437Z,33440
2018-06-02T08:49:54.822Z,40704
2018-06-02T08:50:56.205Z,53632
2018-06-02T08:51:57.598Z,44832
2018-06-02T08:52:58.981Z,73504
2018-06-02T08:54:00.361Z,36416
2018-06-02T08:55:01.769Z,40384
2018-06-02T08:56:03.198Z,134656
2018-06-02T08:57:04.574Z,127936
2018-06-02T08:58:05.963Z,126624
2018-06-02T08:59:07.349Z,36032
2018-06-02T09:00:08.733Z,121856
2018-06-02T09:01:10.124Z,126336
2018-06-02T09:02:11.506Z,127552
2018-06-02T09:03:12.888Z,97024
2018-06-02T09:04:14.276Z,36256
2018-06-02T09:05:15.659Z,116736
2018-06-02T09:06:17.044Z,122688
2018-06-02T09:07:18.430Z,124640
2018-06-02T09:08:19.812Z,120704
2018-06-02T09:09:21.212Z,117056
2018-06-02T09:10:22.623Z,125440
2018-06-02T09:11:24.006Z,48320
2018-06-02T09:12:25.394Z,119424
2018-06-02T09:13:26.778Z,44704
2018-06-02T09:14:28.175Z,43712
2018-06-02T09:15:29.601Z,46688
2018-06-02T09:16:30.937Z,68640
2018-06-02T09:17:32.356Z,67008
2018-06-02T09:18:33.754Z,44896
2018-06-02T09:19:35.132Z,37376
2018-06-02T09:20:36.516Z,31680
2018-06-02T09:21:37.893Z,34976
2018-06-02T09:22:39.274Z,27584
2018-06-02T09:23:40.657Z,25056
2018-06-02T09:24:42.042Z,23648
2018-06-02T09:25:43.421Z,22496
2018-06-02T09:26:44.811Z,22944
2018-06-02T09:27:46.193Z,23808
2018-06-02T09:28:47.567Z,33728
2018-06-02T09:29:48.943Z,24096
2018-06-02T09:30:50.362Z,24448
2018-06-02T09:31:51.748Z,38784
2018-06-02T09:32:53.135Z,40064
2018-06-02T09:33:54.516Z,109312
2018-06-02T09:34:55.943Z,100000
2018-06-02T09:35:57.317Z,99520
2018-06-02T09:36:58.709Z,101440
2018-06-02T09:38:00.101Z,102816
2018-06-02T09:39:01.486Z,104288
2018-06-02T09:40:02.864Z,106720
2018-06-02T09:41:04.255Z,107360
2018-06-02T09:42:05.635Z,106720
2018-06-02T09:43:07.024Z,104384
2018-06-02T09:44:08.409Z,103456
2018-06-02T09:45:09.801Z,106432
2018-06-02T09:46:11.180Z,103328
2018-06-02T09:47:12.580Z,114400
2018-06-02T09:48:13.971Z,117184
2018-06-02T09:49:15.345Z,81728
2018-06-02T09:50:16.733Z,80096
2018-06-02T09:51:18.126Z,76992
2018-06-02T09:52:19.519Z,117440
2018-06-02T09:53:20.909Z,117952
2018-06-02T09:54:22.291Z,112224
2018-06-02T09:55:23.708Z,35904
2018-06-02T09:56:25.107Z,37536
2018-06-02T09:57:26.492Z,108352
2018-06-02T09:58:27.878Z,113248
2018-06-02T09:59:29.271Z,121024
2018-06-02T10:00:30.656Z,121056
2018-06-02T10:01:32.092Z,122208
2018-06-02T10:02:33.528Z,115904
2018-06-02T10:03:34.931Z,102080
2018-06-02T10:04:36.357Z,36608
2018-06-02T10:05:37.707Z,32096
2018-06-02T10:06:39.097Z,31168
2018-06-02T10:07:40.476Z,119200
2018-06-02T10:08:41.866Z,121600
2018-06-02T10:09:43.274Z,122208
2018-06-02T10:10:44.677Z,122848
2018-06-02T10:11:46.070Z,42848
2018-06-02T10:12:47.455Z,125440
2018-06-02T10:13:48.836Z,120160
2018-06-02T10:14:50.234Z,124320
2018-06-02T10:15:51.617Z,128736
2018-06-02T10:16:53.001Z,127552
2018-06-02T10:17:54.386Z,37536
2018-06-02T10:18:55.774Z,30752
2018-06-02T10:19:57.157Z,28352
2018-06-02T10:20:58.543Z,26144
2018-06-02T10:21:59.955Z,25344
2018-06-02T10:23:02.289Z,25568
2018-06-02T10:24:02.686Z,53088
2018-06-02T10:25:04.070Z,121248
2018-06-02T10:26:05.457Z,121472
2018-06-02T10:27:06.867Z,121472
2018-06-02T10:28:08.244Z,121696
2018-06-02T10:29:09.627Z,127040
2018-06-02T10:30:11.062Z,123392
2018-06-02T10:31:12.449Z,126912
2018-06-02T10:32:13.844Z,127520
2018-06-02T10:33:15.227Z,124000
2018-06-02T10:34:16.620Z,106912
2018-06-02T10:35:17.996Z,44512
2018-06-02T10:36:19.389Z,78880
2018-06-02T10:37:20.786Z,128448
2018-06-02T10:38:22.183Z,125952
2018-06-02T10:39:23.561Z,130912
2018-06-02T10:40:24.947Z,131104
2018-06-02T10:41:26.330Z,129664
2018-06-02T10:42:27.718Z,126144
2018-06-02T10:43:29.109Z,118880
2018-06-02T10:44:30.498Z,113568
2018-06-02T10:45:31.917Z,108384
2018-06-02T10:46:33.321Z,109984
2018-06-02T10:47:34.704Z,113344
2018-06-02T10:48:36.098Z,120992
2018-06-02T10:49:37.474Z,72256
2018-06-02T10:50:38.863Z,38688
2018-06-02T10:51:40.266Z,103552
2018-06-02T10:52:41.658Z,31840
2018-06-02T10:53:43.049Z,27808
2018-06-02T10:54:44.428Z,28864
2018-06-02T10:55:45.817Z,37696
2018-06-02T10:56:47.206Z,69472
2018-06-02T10:57:48.605Z,132128
2018-06-02T10:58:49.998Z,130720
2018-06-02T10:59:51.391Z,119712
2018-06-02T11:00:52.770Z,30208
2018-06-02T11:01:54.160Z,39648
2018-06-02T11:02:55.553Z,122848
2018-06-02T11:03:56.943Z,131168
2018-06-02T11:04:58.326Z,129984
2018-06-02T11:05:59.725Z,134752
2018-06-02T11:07:01.112Z,136864
2018-06-02T11:08:02.521Z,136608
2018-06-02T11:09:03.950Z,134112
2018-06-02T11:10:05.284Z,31136
2018-06-02T11:11:06.704Z,37088
2018-06-02T11:12:08.087Z,46688
2018-06-02T11:13:09.519Z,36864
2018-06-02T11:14:10.911Z,31392
2018-06-02T11:15:12.297Z,30752
2018-06-02T11:16:13.698Z,32416
2018-06-02T11:17:15.080Z,88320
2018-06-02T11:18:16.458Z,59232
2018-06-02T11:19:17.845Z,112256
2018-06-02T11:20:19.232Z,45536
2018-06-02T11:21:20.618Z,49568
2018-06-02T11:22:22.005Z,129856
2018-06-02T11:23:23.427Z,57152
2018-06-02T11:24:24.807Z,116192
2018-06-02T11:25:26.286Z,147904
2018-06-02T11:26:27.670Z,129056
2018-06-02T11:27:29.069Z,136992
2018-06-02T11:28:30.457Z,137152
2018-06-02T11:29:31.881Z,135424
2018-06-02T11:30:33.279Z,31616
2018-06-02T11:31:34.657Z,27712
2018-06-02T11:32:36.039Z,27072
2018-06-02T11:33:37.428Z,28000
2018-06-02T11:34:38.819Z,29856
2018-06-02T11:35:40.211Z,32512
2018-06-02T11:36:41.585Z,82368
2018-06-02T11:37:42.993Z,133856
2018-06-02T11:38:44.378Z,136736
2018-06-02T11:39:45.766Z,136448
2018-06-02T11:40:47.164Z,135520
2018-06-02T11:41:48.546Z,131744
2018-06-02T11:42:49.936Z,123264
2018-06-02T11:43:51.321Z,118688
2018-06-02T11:44:52.710Z,116896
2018-06-02T11:45:54.090Z,120224
2018-06-02T11:46:55.480Z,122464
2018-06-02T11:47:56.887Z,128256
2018-06-02T11:48:58.359Z,130336
2018-06-02T11:49:59.739Z,137472
2018-06-02T11:51:01.127Z,76448
2018-06-02T11:52:02.639Z,132544
2018-06-02T11:53:04.023Z,86720
2018-06-02T11:54:05.427Z,76864
2018-06-02T11:55:06.824Z,54240
2018-06-02T11:56:08.210Z,53088
2018-06-02T11:57:09.594Z,54176
2018-06-02T11:58:11.003Z,54144
2018-06-02T11:59:12.382Z,92320
2018-06-02T12:00:13.770Z,69024
2018-06-02T12:01:15.168Z,108160
2018-06-02T12:02:16.570Z,140928
2018-06-02T12:03:17.964Z,139904
2018-06-02T12:04:19.348Z,136416
2018-06-02T12:05:20.743Z,136736
2018-06-02T12:06:22.120Z,133536
2018-06-02T12:07:23.522Z,130752
2018-06-02T12:08:24.903Z,132736
2018-06-02T12:09:26.291Z,70624
2018-06-02T12:10:27.681Z,133248
2018-06-02T12:11:29.070Z,130592
2018-06-02T12:12:30.457Z,129216
2018-06-02T12:13:31.876Z,125408
2018-06-02T12:14:33.278Z,128096
2018-06-02T12:15:34.676Z,128608
2018-06-02T12:16:36.072Z,127840
2018-06-02T12:17:37.481Z,128512
2018-06-02T12:18:38.874Z,32480
2018-06-02T12:19:40.260Z,98912
2018-06-02T12:20:41.683Z,130720
2018-06-02T12:21:43.028Z,50624
2018-06-02T12:22:44.419Z,58528
2018-06-02T12:23:45.801Z,129952
2018-06-02T12:24:47.196Z,128960
2018-06-02T12:25:48.590Z,129728
2018-06-02T12:26:49.983Z,132640
2018-06-02T12:27:51.374Z,131520
2018-06-02T12:28:52.764Z,128928
2018-06-02T12:29:54.173Z,126912
2018-06-02T12:30:55.554Z,125120
2018-06-02T12:31:56.943Z,122848
2018-06-02T12:32:58.338Z,123200
2018-06-02T12:33:59.731Z,121632
2018-06-02T12:35:01.115Z,123328
2018-06-02T12:36:02.508Z,123840
2018-06-02T12:37:03.903Z,69056
2018-06-02T12:38:05.298Z,124384
2018-06-02T12:39:06.682Z,117920
2018-06-02T12:40:08.108Z,117184
2018-06-02T12:41:09.464Z,24032
2018-06-02T12:42:10.842Z,19340
2018-06-02T12:43:12.231Z,19464
2018-06-02T12:44:13.615Z,25408
2018-06-02T12:45:15.012Z,108320
2018-06-02T12:46:16.398Z,112512
2018-06-02T12:47:17.785Z,116064
2018-06-02T12:48:19.181Z,115296
2018-06-02T12:49:20.579Z,115296
2018-06-02T12:50:21.955Z,117472
2018-06-02T12:51:23.344Z,115104
2018-06-02T12:52:24.731Z,109152
2018-06-02T12:53:26.158Z,105888
2018-06-02T12:54:27.472Z,103264
2018-06-02T12:55:28.856Z,103616
2018-06-02T12:56:30.243Z,110272
2018-06-02T12:57:31.663Z,113024
2018-06-02T12:58:33.047Z,112832
2018-06-02T12:59:34.447Z,111648
2018-06-02T13:00:35.834Z,116480
2018-06-02T13:01:37.217Z,116640
2018-06-02T13:02:38.607Z,116704
2018-06-02T13:03:40.004Z,85024
2018-06-02T13:04:41.389Z,18760
2018-06-02T13:05:42.777Z,29792
2018-06-02T13:06:44.234Z,28224
2018-06-02T13:07:45.567Z,29664
2018-06-02T13:08:46.956Z,30368
2018-06-02T13:09:48.340Z,25984
2018-06-02T13:10:49.733Z,24544
2018-06-02T13:11:51.116Z,27840
2018-06-02T13:12:52.508Z,118560
2018-06-02T13:13:53.891Z,119424
2018-06-02T13:14:55.271Z,119552
2018-06-02T13:15:56.661Z,117632
2018-06-02T13:16:58.052Z,123648
2018-06-02T13:17:59.441Z,127712
2018-06-02T13:19:00.821Z,124128
2018-06-02T13:20:02.740Z,118688
2018-06-02T13:21:04.123Z,119040
2018-06-02T13:22:05.505Z,117568
2018-06-02T13:23:06.897Z,106912
2018-06-02T13:24:08.293Z,95200
2018-06-02T13:25:09.675Z,103712
2018-06-02T13:26:11.065Z,106400
2018-06-02T13:27:12.452Z,112160
2018-06-02T13:28:13.839Z,110080
2018-06-02T13:29:15.233Z,77760
2018-06-02T13:30:16.610Z,70432
2018-06-02T13:31:18.004Z,92512
2018-06-02T13:32:19.390Z,101792
2018-06-02T13:33:20.777Z,69984